sensor_id;sensor_type;location;lat;lon;timestamp;temperature;humidity
16829;DHT22;8531;48.078;11.968;2023-08-08T00:01:51;12.80;99.90
16829;DHT22;8531;48.078;11.968;2023-08-08T00:04:16;12.80;99.90
16829;DHT22;8531;48.078;11.968;2023-08-08T00:06:42;12.80;99.90
16829;DHT22;8531;48.078;11.968;2023-08-08T00:09:08;12.70;99.90
16829;DHT22;8531;48.078;11.968;2023-08-08T00:11:33;12.70;99.90
16829;DHT22;8531;48.078;11.968;2023-08-08T00:13:59;12.60;99.90
16829;DHT22;8531;48.078;11.968;2023-08-08T00:16:25;12.70;99.90
16829;DHT22;8531;48.078;11.968;2023-08-08T00:18:51;12.60;99.90
16829;DHT22;8531;48.078;11.968;2023-08-08T00:21:19;12.60;99.90
16829;DHT22;8531;48.078;11.968;2023-08-08T00:23:45;12.60;99.90
16829;DHT22;8531;48.078;11.968;2023-08-08T00:26:11;12.60;99.90
16829;DHT22;8531;48.078;11.968;2023-08-08T00:28:36;12.50;99.90
16829;DHT22;8531;48.078;11.968;2023-08-08T00:31:02;12.60;99.90
16829;DHT22;8531;48.078;11.968;2023-08-08T00:33:28;12.50;99.90
16829;DHT22;8531;48.078;11.968;2023-08-08T00:35:54;12.50;99.90
16829;DHT22;8531;48.078;11.968;2023-08-08T00:38:20;12.60;99.90
16829;DHT22;8531;48.078;11.968;2023-08-08T00:40:46;12.60;99.90
16829;DHT22;8531;48.078;11.968;2023-08-08T00:43:12;12.60;99.90
16829;DHT22;8531;48.078;11.968;2023-08-08T00:45:38;12.60;99.90
16829;DHT22;8531;48.078;11.968;2023-08-08T00:48:05;12.60;99.90
16829;DHT22;8531;48.078;11.968;2023-08-08T00:50:31;12.70;99.90
16829;DHT22;8531;48.078;11.968;2023-08-08T00:52:57;12.70;99.90
16829;DHT22;8531;48.078;11.968;2023-08-08T00:55:23;12.70;99.90
16829;DHT22;8531;48.078;11.968;2023-08-08T00:57:48;12.80;99.90
16829;DHT22;8531;48.078;11.968;2023-08-08T01:00:14;12.70;99.90
16829;DHT22;8531;48.078;11.968;2023-08-08T01:02:40;12.70;99.90
16829;DHT22;8531;48.078;11.968;2023-08-08T01:05:07;12.80;99.90
16829;DHT22;8531;48.078;11.968;2023-08-08T01:10:10;12.80;99.90
16829;DHT22;8531;48.078;11.968;2023-08-08T01:12:45;12.90;99.90
16829;DHT22;8531;48.078;11.968;2023-08-08T01:15:12;12.90;99.90
16829;DHT22;8531;48.078;11.968;2023-08-08T01:17:39;12.90;99.90
16829;DHT22;8531;48.078;11.968;2023-08-08T01:20:06;12.90;99.90
16829;DHT22;8531;48.078;11.968;2023-08-08T01:22:40;13.00;99.90
16829;DHT22;8531;48.078;11.968;2023-08-08T01:25:08;13.00;99.90
16829;DHT22;8531;48.078;11.968;2023-08-08T01:27:35;13.00;99.90
16829;DHT22;8531;48.078;11.968;2023-08-08T01:30:01;13.00;99.90
16829;DHT22;8531;48.078;11.968;2023-08-08T01:32:26;13.00;99.90
16829;DHT22;8531;48.078;11.968;2023-08-08T01:34:52;13.00;99.90
16829;DHT22;8531;48.078;11.968;2023-08-08T01:37:22;13.00;99.90
16829;DHT22;8531;48.078;11.968;2023-08-08T01:39:50;13.10;99.90
16829;DHT22;8531;48.078;11.968;2023-08-08T01:42:18;13.10;99.90
16829;DHT22;8531;48.078;11.968;2023-08-08T01:44:46;13.10;99.90
16829;DHT22;8531;48.078;11.968;2023-08-08T01:47:12;13.10;99.90
16829;DHT22;8531;48.078;11.968;2023-08-08T01:49:38;13.10;99.90
16829;DHT22;8531;48.078;11.968;2023-08-08T01:52:04;13.10;99.90
16829;DHT22;8531;48.078;11.968;2023-08-08T01:54:30;13.00;99.90
16829;DHT22;8531;48.078;11.968;2023-08-08T01:56:56;13.00;99.90
16829;DHT22;8531;48.078;11.968;2023-08-08T01:59:22;12.90;99.90
16829;DHT22;8531;48.078;11.968;2023-08-08T02:01:48;13.00;99.90
16829;DHT22;8531;48.078;11.968;2023-08-08T02:04:14;13.00;99.90
16829;DHT22;8531;48.078;11.968;2023-08-08T02:06:39;12.90;99.90
16829;DHT22;8531;48.078;11.968;2023-08-08T02:09:06;12.90;99.90
16829;DHT22;8531;48.078;11.968;2023-08-08T02:11:32;12.90;99.90
16829;DHT22;8531;48.078;11.968;2023-08-08T02:13:58;12.90;99.90
16829;DHT22;8531;48.078;11.968;2023-08-08T02:16:23;13.00;99.90
16829;DHT22;8531;48.078;11.968;2023-08-08T02:18:49;13.00;99.90
16829;DHT22;8531;48.078;11.968;2023-08-08T02:21:15;12.90;99.90
16829;DHT22;8531;48.078;11.968;2023-08-08T02:23:40;12.90;99.90
16829;DHT22;8531;48.078;11.968;2023-08-08T02:26:06;12.90;99.90
16829;DHT22;8531;48.078;11.968;2023-08-08T02:28:32;12.90;99.90
16829;DHT22;8531;48.078;11.968;2023-08-08T02:30:57;12.90;99.90
16829;DHT22;8531;48.078;11.968;2023-08-08T02:33:23;12.80;99.90
16829;DHT22;8531;48.078;11.968;2023-08-08T02:35:49;12.80;99.90
16829;DHT22;8531;48.078;11.968;2023-08-08T02:38:14;12.80;99.90
16829;DHT22;8531;48.078;11.968;2023-08-08T02:40:40;12.70;99.90
16829;DHT22;8531;48.078;11.968;2023-08-08T02:43:05;12.70;99.90
16829;DHT22;8531;48.078;11.968;2023-08-08T02:45:31;12.70;99.90
16829;DHT22;8531;48.078;11.968;2023-08-08T02:47:57;12.70;99.90
16829;DHT22;8531;48.078;11.968;2023-08-08T02:50:22;12.70;99.90
16829;DHT22;8531;48.078;11.968;2023-08-08T02:52:49;12.60;99.90
16829;DHT22;8531;48.078;11.968;2023-08-08T02:55:15;12.60;99.90
16829;DHT22;8531;48.078;11.968;2023-08-08T02:57:41;12.60;99.90
16829;DHT22;8531;48.078;11.968;2023-08-08T03:00:07;12.60;99.90
16829;DHT22;8531;48.078;11.968;2023-08-08T03:02:34;12.60;99.90
16829;DHT22;8531;48.078;11.968;2023-08-08T03:04:59;12.60;99.90
16829;DHT22;8531;48.078;11.968;2023-08-08T03:07:25;12.60;99.90
16829;DHT22;8531;48.078;11.968;2023-08-08T03:09:51;12.50;99.90
16829;DHT22;8531;48.078;11.968;2023-08-08T03:12:16;12.50;99.90
16829;DHT22;8531;48.078;11.968;2023-08-08T03:14:42;12.30;99.90
16829;DHT22;8531;48.078;11.968;2023-08-08T03:17:08;12.40;99.90
16829;DHT22;8531;48.078;11.968;2023-08-08T03:19:33;12.40;99.90
16829;DHT22;8531;48.078;11.968;2023-08-08T03:21:59;12.40;99.90
16829;DHT22;8531;48.078;11.968;2023-08-08T03:24:25;12.30;99.90
16829;DHT22;8531;48.078;11.968;2023-08-08T03:26:50;12.40;99.90
16829;DHT22;8531;48.078;11.968;2023-08-08T03:29:16;12.40;99.90
16829;DHT22;8531;48.078;11.968;2023-08-08T03:31:42;12.40;99.90
16829;DHT22;8531;48.078;11.968;2023-08-08T03:34:07;12.40;99.90
16829;DHT22;8531;48.078;11.968;2023-08-08T03:36:33;12.40;99.90
16829;DHT22;8531;48.078;11.968;2023-08-08T03:38:59;12.40;99.90
16829;DHT22;8531;48.078;11.968;2023-08-08T03:41:24;12.30;99.90
16829;DHT22;8531;48.078;11.968;2023-08-08T03:43:50;12.30;99.90
16829;DHT22;8531;48.078;11.968;2023-08-08T03:46:16;12.30;99.90
16829;DHT22;8531;48.078;11.968;2023-08-08T03:48:41;12.30;99.90
16829;DHT22;8531;48.078;11.968;2023-08-08T03:51:07;12.30;99.90
16829;DHT22;8531;48.078;11.968;2023-08-08T03:53:33;12.30;99.90
16829;DHT22;8531;48.078;11.968;2023-08-08T03:55:58;12.30;99.90
16829;DHT22;8531;48.078;11.968;2023-08-08T03:58:24;12.30;99.90
16829;DHT22;8531;48.078;11.968;2023-08-08T04:00:50;12.30;99.90
16829;DHT22;8531;48.078;11.968;2023-08-08T04:03:16;12.30;99.90
16829;DHT22;8531;48.078;11.968;2023-08-08T04:05:46;12.30;99.90
16829;DHT22;8531;48.078;11.968;2023-08-08T04:08:15;12.30;99.90
16829;DHT22;8531;48.078;11.968;2023-08-08T04:10:41;12.30;99.90
16829;DHT22;8531;48.078;11.968;2023-08-08T04:13:07;12.30;99.90
16829;DHT22;8531;48.078;11.968;2023-08-08T04:15:32;12.30;99.90
16829;DHT22;8531;48.078;11.968;2023-08-08T04:17:58;12.30;99.90
16829;DHT22;8531;48.078;11.968;2023-08-08T04:20:24;12.30;99.90
16829;DHT22;8531;48.078;11.968;2023-08-08T04:22:49;12.40;99.90
16829;DHT22;8531;48.078;11.968;2023-08-08T04:25:15;12.40;99.90
16829;DHT22;8531;48.078;11.968;2023-08-08T04:27:41;12.50;99.90
16829;DHT22;8531;48.078;11.968;2023-08-08T04:30:07;12.50;99.90
16829;DHT22;8531;48.078;11.968;2023-08-08T04:32:33;12.50;99.90
16829;DHT22;8531;48.078;11.968;2023-08-08T04:34:59;12.50;99.90
16829;DHT22;8531;48.078;11.968;2023-08-08T04:37:24;12.60;99.90
16829;DHT22;8531;48.078;11.968;2023-08-08T04:39:50;12.60;99.90
16829;DHT22;8531;48.078;11.968;2023-08-08T04:42:16;12.60;99.90
16829;DHT22;8531;48.078;11.968;2023-08-08T04:44:41;12.70;99.90
16829;DHT22;8531;48.078;11.968;2023-08-08T04:47:07;12.70;99.90
16829;DHT22;8531;48.078;11.968;2023-08-08T04:49:33;12.70;99.90
16829;DHT22;8531;48.078;11.968;2023-08-08T04:51:59;12.70;99.90
16829;DHT22;8531;48.078;11.968;2023-08-08T04:54:25;12.70;99.90
16829;DHT22;8531;48.078;11.968;2023-08-08T04:56:50;12.80;99.90
16829;DHT22;8531;48.078;11.968;2023-08-08T04:59:16;12.80;99.90
16829;DHT22;8531;48.078;11.968;2023-08-08T05:01:42;12.80;99.90
16829;DHT22;8531;48.078;11.968;2023-08-08T05:04:08;12.80;99.90
16829;DHT22;8531;48.078;11.968;2023-08-08T05:06:34;12.80;99.90
16829;DHT22;8531;48.078;11.968;2023-08-08T05:09:00;12.90;99.90
16829;DHT22;8531;48.078;11.968;2023-08-08T05:11:25;12.90;99.90
16829;DHT22;8531;48.078;11.968;2023-08-08T05:13:51;12.90;99.90
16829;DHT22;8531;48.078;11.968;2023-08-08T05:16:18;12.90;99.90
16829;DHT22;8531;48.078;11.968;2023-08-08T05:18:43;12.90;99.90
16829;DHT22;8531;48.078;11.968;2023-08-08T05:21:12;12.80;99.90
16829;DHT22;8531;48.078;11.968;2023-08-08T05:23:38;12.80;99.90
16829;DHT22;8531;48.078;11.968;2023-08-08T05:26:03;12.90;99.90
16829;DHT22;8531;48.078;11.968;2023-08-08T05:28:29;12.80;99.90
16829;DHT22;8531;48.078;11.968;2023-08-08T05:30:55;12.80;99.90
16829;DHT22;8531;48.078;11.968;2023-08-08T05:33:22;12.70;99.90
16829;DHT22;8531;48.078;11.968;2023-08-08T05:35:47;12.70;99.90
16829;DHT22;8531;48.078;11.968;2023-08-08T05:38:13;12.80;99.90
16829;DHT22;8531;48.078;11.968;2023-08-08T05:40:39;12.70;99.90
16829;DHT22;8531;48.078;11.968;2023-08-08T05:43:04;12.70;99.90
16829;DHT22;8531;48.078;11.968;2023-08-08T05:45:30;12.80;99.90
16829;DHT22;8531;48.078;11.968;2023-08-08T05:47:57;12.70;99.90
16829;DHT22;8531;48.078;11.968;2023-08-08T05:50:23;12.80;99.90
16829;DHT22;8531;48.078;11.968;2023-08-08T05:52:48;12.80;99.90
16829;DHT22;8531;48.078;11.968;2023-08-08T05:55:14;12.80;99.90
16829;DHT22;8531;48.078;11.968;2023-08-08T05:57:40;12.90;99.90
16829;DHT22;8531;48.078;11.968;2023-08-08T06:00:06;13.00;99.90
16829;DHT22;8531;48.078;11.968;2023-08-08T06:02:36;13.00;99.90
16829;DHT22;8531;48.078;11.968;2023-08-08T06:05:01;13.20;99.90
16829;DHT22;8531;48.078;11.968;2023-08-08T06:07:27;13.20;99.90
16829;DHT22;8531;48.078;11.968;2023-08-08T06:09:53;13.20;99.90
16829;DHT22;8531;48.078;11.968;2023-08-08T06:12:18;13.30;99.90
16829;DHT22;8531;48.078;11.968;2023-08-08T06:14:44;13.40;99.90
16829;DHT22;8531;48.078;11.968;2023-08-08T06:17:10;13.50;99.90
16829;DHT22;8531;48.078;11.968;2023-08-08T06:19:35;13.50;99.90
16829;DHT22;8531;48.078;11.968;2023-08-08T06:22:01;13.60;99.90
16829;DHT22;8531;48.078;11.968;2023-08-08T06:24:28;13.70;99.90
16829;DHT22;8531;48.078;11.968;2023-08-08T06:26:54;13.70;99.90
16829;DHT22;8531;48.078;11.968;2023-08-08T06:29:19;13.70;99.90
16829;DHT22;8531;48.078;11.968;2023-08-08T06:31:45;13.80;99.90
16829;DHT22;8531;48.078;11.968;2023-08-08T06:34:11;13.80;99.90
16829;DHT22;8531;48.078;11.968;2023-08-08T06:36:36;13.80;99.90
16829;DHT22;8531;48.078;11.968;2023-08-08T06:39:02;13.90;99.90
16829;DHT22;8531;48.078;11.968;2023-08-08T06:41:28;14.00;99.90
16829;DHT22;8531;48.078;11.968;2023-08-08T06:43:54;14.20;99.90
16829;DHT22;8531;48.078;11.968;2023-08-08T06:46:20;14.20;99.90
16829;DHT22;8531;48.078;11.968;2023-08-08T06:48:46;14.30;99.90
16829;DHT22;8531;48.078;11.968;2023-08-08T06:51:13;14.20;99.90
16829;DHT22;8531;48.078;11.968;2023-08-08T06:53:38;14.30;99.90
16829;DHT22;8531;48.078;11.968;2023-08-08T06:56:04;14.20;99.90
16829;DHT22;8531;48.078;11.968;2023-08-08T06:58:30;14.30;99.90
16829;DHT22;8531;48.078;11.968;2023-08-08T07:00:56;14.40;99.90
16829;DHT22;8531;48.078;11.968;2023-08-08T07:03:21;14.60;99.90
16829;DHT22;8531;48.078;11.968;2023-08-08T07:05:47;14.90;99.90
16829;DHT22;8531;48.078;11.968;2023-08-08T07:08:18;15.10;99.90
16829;DHT22;8531;48.078;11.968;2023-08-08T07:10:44;15.30;99.90
16829;DHT22;8531;48.078;11.968;2023-08-08T07:13:10;15.50;99.90
16829;DHT22;8531;48.078;11.968;2023-08-08T07:15:36;15.80;99.90
16829;DHT22;8531;48.078;11.968;2023-08-08T07:18:02;15.80;99.90
16829;DHT22;8531;48.078;11.968;2023-08-08T07:20:28;16.00;99.90
16829;DHT22;8531;48.078;11.968;2023-08-08T07:22:54;16.20;99.90
16829;DHT22;8531;48.078;11.968;2023-08-08T07:25:20;16.40;99.90
16829;DHT22;8531;48.078;11.968;2023-08-08T07:27:45;16.60;99.90
16829;DHT22;8531;48.078;11.968;2023-08-08T07:30:11;16.70;99.90
16829;DHT22;8531;48.078;11.968;2023-08-08T07:32:37;16.70;99.90
16829;DHT22;8531;48.078;11.968;2023-08-08T07:35:03;16.80;99.90
16829;DHT22;8531;48.078;11.968;2023-08-08T07:37:31;16.90;99.90
16829;DHT22;8531;48.078;11.968;2023-08-08T07:39:58;17.10;99.90
16829;DHT22;8531;48.078;11.968;2023-08-08T07:42:23;17.30;99.90
16829;DHT22;8531;48.078;11.968;2023-08-08T07:44:49;17.50;99.90
16829;DHT22;8531;48.078;11.968;2023-08-08T07:47:15;17.50;99.90
16829;DHT22;8531;48.078;11.968;2023-08-08T07:49:41;17.40;99.90
16829;DHT22;8531;48.078;11.968;2023-08-08T07:52:07;17.40;99.90
16829;DHT22;8531;48.078;11.968;2023-08-08T07:54:33;17.60;99.90
16829;DHT22;8531;48.078;11.968;2023-08-08T07:56:59;17.70;99.90
16829;DHT22;8531;48.078;11.968;2023-08-08T07:59:25;17.70;99.90
16829;DHT22;8531;48.078;11.968;2023-08-08T08:01:51;17.70;99.90
16829;DHT22;8531;48.078;11.968;2023-08-08T08:04:16;17.60;99.90
16829;DHT22;8531;48.078;11.968;2023-08-08T08:06:42;17.60;99.90
16829;DHT22;8531;48.078;11.968;2023-08-08T08:09:08;17.90;99.90
16829;DHT22;8531;48.078;11.968;2023-08-08T08:11:33;18.20;99.90
16829;DHT22;8531;48.078;11.968;2023-08-08T08:13:59;18.60;99.90
16829;DHT22;8531;48.078;11.968;2023-08-08T08:16:25;18.60;99.90
16829;DHT22;8531;48.078;11.968;2023-08-08T08:18:50;18.60;99.90
16829;DHT22;8531;48.078;11.968;2023-08-08T08:21:16;18.60;99.90
16829;DHT22;8531;48.078;11.968;2023-08-08T08:23:43;18.60;99.90
16829;DHT22;8531;48.078;11.968;2023-08-08T08:26:09;18.70;99.90
16829;DHT22;8531;48.078;11.968;2023-08-08T08:28:35;18.70;99.90
16829;DHT22;8531;48.078;11.968;2023-08-08T08:31:05;18.70;99.90
16829;DHT22;8531;48.078;11.968;2023-08-08T08:33:31;18.90;99.90
16829;DHT22;8531;48.078;11.968;2023-08-08T08:35:57;19.00;99.90
16829;DHT22;8531;48.078;11.968;2023-08-08T08:38:22;19.00;99.90
16829;DHT22;8531;48.078;11.968;2023-08-08T08:40:48;19.30;99.90
16829;DHT22;8531;48.078;11.968;2023-08-08T08:43:15;19.50;99.90
16829;DHT22;8531;48.078;11.968;2023-08-08T08:45:44;19.60;99.90
16829;DHT22;8531;48.078;11.968;2023-08-08T08:48:13;19.70;99.90
16829;DHT22;8531;48.078;11.968;2023-08-08T08:50:41;19.70;99.90
16829;DHT22;8531;48.078;11.968;2023-08-08T08:53:07;19.60;99.90
16829;DHT22;8531;48.078;11.968;2023-08-08T08:55:33;19.70;99.90
16829;DHT22;8531;48.078;11.968;2023-08-08T08:57:59;19.90;99.90
16829;DHT22;8531;48.078;11.968;2023-08-08T09:00:25;20.10;99.90
16829;DHT22;8531;48.078;11.968;2023-08-08T09:02:51;19.80;99.90
16829;DHT22;8531;48.078;11.968;2023-08-08T09:05:18;19.70;99.90
16829;DHT22;8531;48.078;11.968;2023-08-08T09:07:47;19.80;99.90
16829;DHT22;8531;48.078;11.968;2023-08-08T09:10:15;19.80;99.90
16829;DHT22;8531;48.078;11.968;2023-08-08T09:12:41;19.80;99.90
16829;DHT22;8531;48.078;11.968;2023-08-08T09:15:07;19.90;99.90
16829;DHT22;8531;48.078;11.968;2023-08-08T09:17:33;20.10;99.90
16829;DHT22;8531;48.078;11.968;2023-08-08T09:19:58;20.30;99.90
16829;DHT22;8531;48.078;11.968;2023-08-08T09:22:24;20.40;99.90
16829;DHT22;8531;48.078;11.968;2023-08-08T09:24:52;20.70;99.90
16829;DHT22;8531;48.078;11.968;2023-08-08T09:27:18;20.80;99.90
16829;DHT22;8531;48.078;11.968;2023-08-08T09:29:44;21.10;99.90
16829;DHT22;8531;48.078;11.968;2023-08-08T09:32:10;21.20;99.90
16829;DHT22;8531;48.078;11.968;2023-08-08T09:34:36;21.00;99.90
16829;DHT22;8531;48.078;11.968;2023-08-08T09:37:02;20.80;99.90
16829;DHT22;8531;48.078;11.968;2023-08-08T09:39:28;20.90;99.90
16829;DHT22;8531;48.078;11.968;2023-08-08T09:41:56;21.00;99.90
16829;DHT22;8531;48.078;11.968;2023-08-08T09:44:26;21.10;99.90
16829;DHT22;8531;48.078;11.968;2023-08-08T09:46:55;21.20;99.90
16829;DHT22;8531;48.078;11.968;2023-08-08T09:49:22;21.20;99.90
16829;DHT22;8531;48.078;11.968;2023-08-08T09:51:51;21.50;99.90
16829;DHT22;8531;48.078;11.968;2023-08-08T09:54:17;21.50;99.90
16829;DHT22;8531;48.078;11.968;2023-08-08T09:56:43;21.40;99.90
16829;DHT22;8531;48.078;11.968;2023-08-08T09:59:09;21.40;99.90
16829;DHT22;8531;48.078;11.968;2023-08-08T10:01:37;21.50;99.90
16829;DHT22;8531;48.078;11.968;2023-08-08T10:04:06;21.50;99.90
16829;DHT22;8531;48.078;11.968;2023-08-08T10:06:32;21.30;99.90
16829;DHT22;8531;48.078;11.968;2023-08-08T10:08:58;21.30;99.90
16829;DHT22;8531;48.078;11.968;2023-08-08T10:11:25;21.60;99.90
16829;DHT22;8531;48.078;11.968;2023-08-08T10:13:53;21.80;99.90
16829;DHT22;8531;48.078;11.968;2023-08-08T10:16:19;21.70;99.90
16829;DHT22;8531;48.078;11.968;2023-08-08T10:18:55;21.70;99.90
16829;DHT22;8531;48.078;11.968;2023-08-08T10:21:25;21.90;99.90
16829;DHT22;8531;48.078;11.968;2023-08-08T10:24:04;21.80;99.90
16829;DHT22;8531;48.078;11.968;2023-08-08T10:26:31;21.80;99.90
16829;DHT22;8531;48.078;11.968;2023-08-08T10:28:58;21.60;99.90
16829;DHT22;8531;48.078;11.968;2023-08-08T10:31:24;21.50;99.90
16829;DHT22;8531;48.078;11.968;2023-08-08T10:34:01;21.50;99.90
16829;DHT22;8531;48.078;11.968;2023-08-08T10:36:43;21.60;99.90
16829;DHT22;8531;48.078;11.968;2023-08-08T10:39:15;21.70;99.90
16829;DHT22;8531;48.078;11.968;2023-08-08T10:41:48;21.70;99.90
16829;DHT22;8531;48.078;11.968;2023-08-08T10:44:21;21.80;99.90
16829;DHT22;8531;48.078;11.968;2023-08-08T10:46:48;21.80;99.90
16829;DHT22;8531;48.078;11.968;2023-08-08T10:49:14;21.70;99.90
16829;DHT22;8531;48.078;11.968;2023-08-08T10:51:44;21.70;99.90
16829;DHT22;8531;48.078;11.968;2023-08-08T10:54:21;21.80;99.90
16829;DHT22;8531;48.078;11.968;2023-08-08T10:56:52;22.10;99.90
16829;DHT22;8531;48.078;11.968;2023-08-08T10:59:21;22.20;99.90
16829;DHT22;8531;48.078;11.968;2023-08-08T11:01:48;22.00;99.90
16829;DHT22;8531;48.078;11.968;2023-08-08T11:04:16;22.00;99.90
16829;DHT22;8531;48.078;11.968;2023-08-08T11:06:43;22.20;99.90
16829;DHT22;8531;48.078;11.968;2023-08-08T11:09:09;22.30;99.90
16829;DHT22;8531;48.078;11.968;2023-08-08T11:11:42;22.70;99.90
16829;DHT22;8531;48.078;11.968;2023-08-08T11:14:14;22.80;99.90
16829;DHT22;8531;48.078;11.968;2023-08-08T11:16:41;22.80;99.90
16829;DHT22;8531;48.078;11.968;2023-08-08T11:19:06;22.80;99.90
16829;DHT22;8531;48.078;11.968;2023-08-08T11:21:41;22.50;99.90
16829;DHT22;8531;48.078;11.968;2023-08-08T11:24:07;22.20;99.90
16829;DHT22;8531;48.078;11.968;2023-08-08T11:26:34;22.10;99.90
16829;DHT22;8531;48.078;11.968;2023-08-08T11:29:01;22.20;99.90
16829;DHT22;8531;48.078;11.968;2023-08-08T11:31:27;22.20;99.90
16829;DHT22;8531;48.078;11.968;2023-08-08T11:33:54;22.10;99.90
16829;DHT22;8531;48.078;11.968;2023-08-08T11:36:20;22.10;99.90
16829;DHT22;8531;48.078;11.968;2023-08-08T11:38:47;22.10;99.90
16829;DHT22;8531;48.078;11.968;2023-08-08T11:41:15;22.10;99.90
16829;DHT22;8531;48.078;11.968;2023-08-08T11:43:41;21.80;99.90
16829;DHT22;8531;48.078;11.968;2023-08-08T11:46:14;21.80;99.90
16829;DHT22;8531;48.078;11.968;2023-08-08T11:48:40;21.80;99.90
16829;DHT22;8531;48.078;11.968;2023-08-08T11:51:07;21.90;99.90
16829;DHT22;8531;48.078;11.968;2023-08-08T11:53:34;22.00;99.90
16829;DHT22;8531;48.078;11.968;2023-08-08T11:56:01;22.10;99.90
16829;DHT22;8531;48.078;11.968;2023-08-08T11:58:29;22.30;99.90
16829;DHT22;8531;48.078;11.968;2023-08-08T12:00:56;22.50;99.90
16829;DHT22;8531;48.078;11.968;2023-08-08T12:03:22;22.70;99.90
16829;DHT22;8531;48.078;11.968;2023-08-08T12:05:48;22.90;99.90
16829;DHT22;8531;48.078;11.968;2023-08-08T12:08:21;23.10;99.90
16829;DHT22;8531;48.078;11.968;2023-08-08T12:10:50;23.40;99.90
16829;DHT22;8531;48.078;11.968;2023-08-08T12:13:22;23.60;99.90
16829;DHT22;8531;48.078;11.968;2023-08-08T12:15:48;24.00;99.90
16829;DHT22;8531;48.078;11.968;2023-08-08T12:18:17;23.90;99.90
16829;DHT22;8531;48.078;11.968;2023-08-08T12:20:43;23.60;99.90
16829;DHT22;8531;48.078;11.968;2023-08-08T12:23:10;23.70;99.90
16829;DHT22;8531;48.078;11.968;2023-08-08T12:25:36;23.80;99.90
16829;DHT22;8531;48.078;11.968;2023-08-08T12:28:02;23.80;99.90
16829;DHT22;8531;48.078;11.968;2023-08-08T12:30:28;23.20;99.90
16829;DHT22;8531;48.078;11.968;2023-08-08T12:32:54;23.30;99.90
16829;DHT22;8531;48.078;11.968;2023-08-08T12:35:20;23.30;99.90
16829;DHT22;8531;48.078;11.968;2023-08-08T12:37:46;23.30;99.90
16829;DHT22;8531;48.078;11.968;2023-08-08T12:40:12;23.50;99.90
16829;DHT22;8531;48.078;11.968;2023-08-08T12:42:38;23.50;99.90
16829;DHT22;8531;48.078;11.968;2023-08-08T12:45:06;23.60;99.90
16829;DHT22;8531;48.078;11.968;2023-08-08T12:47:32;23.90;99.90
16829;DHT22;8531;48.078;11.968;2023-08-08T12:50:02;23.70;99.90
16829;DHT22;8531;48.078;11.968;2023-08-08T12:52:28;23.60;99.90
16829;DHT22;8531;48.078;11.968;2023-08-08T12:54:54;23.90;99.90
16829;DHT22;8531;48.078;11.968;2023-08-08T12:57:19;24.10;99.90
16829;DHT22;8531;48.078;11.968;2023-08-08T12:59:45;24.30;99.90
16829;DHT22;8531;48.078;11.968;2023-08-08T13:02:11;24.40;99.90
16829;DHT22;8531;48.078;11.968;2023-08-08T13:04:37;24.70;99.90
16829;DHT22;8531;48.078;11.968;2023-08-08T13:07:03;24.90;99.90
16829;DHT22;8531;48.078;11.968;2023-08-08T13:09:30;24.90;99.90
16829;DHT22;8531;48.078;11.968;2023-08-08T13:11:55;24.90;99.90
16829;DHT22;8531;48.078;11.968;2023-08-08T13:14:21;24.90;99.90
16829;DHT22;8531;48.078;11.968;2023-08-08T13:16:47;25.10;99.90
16829;DHT22;8531;48.078;11.968;2023-08-08T13:19:13;24.90;99.90
16829;DHT22;8531;48.078;11.968;2023-08-08T13:21:40;24.70;99.90
16829;DHT22;8531;48.078;11.968;2023-08-08T13:24:06;24.80;99.90
16829;DHT22;8531;48.078;11.968;2023-08-08T13:26:32;24.90;99.90
16829;DHT22;8531;48.078;11.968;2023-08-08T13:28:58;24.80;99.90
16829;DHT22;8531;48.078;11.968;2023-08-08T13:31:23;24.70;99.90
16829;DHT22;8531;48.078;11.968;2023-08-08T13:33:49;24.70;99.90
16829;DHT22;8531;48.078;11.968;2023-08-08T13:36:15;24.90;99.90
16829;DHT22;8531;48.078;11.968;2023-08-08T13:38:40;24.70;99.90
16829;DHT22;8531;48.078;11.968;2023-08-08T13:41:06;24.80;99.90
16829;DHT22;8531;48.078;11.968;2023-08-08T13:43:32;24.80;99.50
16829;DHT22;8531;48.078;11.968;2023-08-08T13:45:59;24.70;99.90
16829;DHT22;8531;48.078;11.968;2023-08-08T13:48:25;25.10;99.90
16829;DHT22;8531;48.078;11.968;2023-08-08T13:50:52;25.30;99.90
16829;DHT22;8531;48.078;11.968;2023-08-08T13:53:18;25.30;99.00
16829;DHT22;8531;48.078;11.968;2023-08-08T13:55:44;24.90;98.80
16829;DHT22;8531;48.078;11.968;2023-08-08T13:58:10;24.70;99.30
16829;DHT22;8531;48.078;11.968;2023-08-08T14:00:35;24.90;99.60
16829;DHT22;8531;48.078;11.968;2023-08-08T14:03:02;24.80;98.70
16829;DHT22;8531;48.078;11.968;2023-08-08T14:05:28;24.50;98.30
16829;DHT22;8531;48.078;11.968;2023-08-08T14:07:55;24.40;98.60
16829;DHT22;8531;48.078;11.968;2023-08-08T14:10:21;24.30;97.90
16829;DHT22;8531;48.078;11.968;2023-08-08T14:12:47;24.70;98.60
16829;DHT22;8531;48.078;11.968;2023-08-08T14:15:12;24.70;98.50
16829;DHT22;8531;48.078;11.968;2023-08-08T14:17:38;24.90;99.70
16829;DHT22;8531;48.078;11.968;2023-08-08T14:20:04;25.10;98.10
16829;DHT22;8531;48.078;11.968;2023-08-08T14:22:33;24.90;97.30
16829;DHT22;8531;48.078;11.968;2023-08-08T14:24:59;25.10;98.20
16829;DHT22;8531;48.078;11.968;2023-08-08T14:27:25;25.10;97.90
16829;DHT22;8531;48.078;11.968;2023-08-08T14:29:50;25.30;98.50
16829;DHT22;8531;48.078;11.968;2023-08-08T14:32:16;25.30;97.30
16829;DHT22;8531;48.078;11.968;2023-08-08T14:34:42;25.40;98.00
16829;DHT22;8531;48.078;11.968;2023-08-08T14:37:09;25.30;97.80
16829;DHT22;8531;48.078;11.968;2023-08-08T14:39:34;24.80;97.80
16829;DHT22;8531;48.078;11.968;2023-08-08T14:42:01;24.70;98.40
16829;DHT22;8531;48.078;11.968;2023-08-08T14:44:29;24.70;98.10
16829;DHT22;8531;48.078;11.968;2023-08-08T14:46:55;24.40;97.80
16829;DHT22;8531;48.078;11.968;2023-08-08T14:49:21;24.20;96.70
16829;DHT22;8531;48.078;11.968;2023-08-08T14:51:48;23.50;97.40
16829;DHT22;8531;48.078;11.968;2023-08-08T14:54:13;23.50;97.60
16829;DHT22;8531;48.078;11.968;2023-08-08T14:56:39;23.80;98.00
16829;DHT22;8531;48.078;11.968;2023-08-08T14:59:05;24.00;97.30
16829;DHT22;8531;48.078;11.968;2023-08-08T15:01:31;24.00;97.60
16829;DHT22;8531;48.078;11.968;2023-08-08T15:03:57;24.10;97.70
16829;DHT22;8531;48.078;11.968;2023-08-08T15:06:23;24.10;97.50
16829;DHT22;8531;48.078;11.968;2023-08-08T15:08:49;24.10;97.90
16829;DHT22;8531;48.078;11.968;2023-08-08T15:11:16;24.20;98.40
16829;DHT22;8531;48.078;11.968;2023-08-08T15:13:42;24.20;97.20
16829;DHT22;8531;48.078;11.968;2023-08-08T15:16:08;24.30;97.50
16829;DHT22;8531;48.078;11.968;2023-08-08T15:18:34;24.60;98.30
16829;DHT22;8531;48.078;11.968;2023-08-08T15:20:59;24.70;98.10
16829;DHT22;8531;48.078;11.968;2023-08-08T15:23:26;24.50;97.80
16829;DHT22;8531;48.078;11.968;2023-08-08T15:25:51;24.50;98.50
16829;DHT22;8531;48.078;11.968;2023-08-08T15:28:17;24.40;98.00